sensor_id;sensor_type;location;lat;lon;timestamp;P1;durP1;ratioP1;P2;durP2;ratioP2
11761;SDS011;5938;47.098;15.474;2022-08-21T00:02:20;4.47;;;1.53;;
11761;SDS011;5938;47.098;15.474;2022-08-21T00:06:25;4.13;;;1.43;;
11761;SDS011;5938;47.098;15.474;2022-08-21T00:10:31;4.10;;;1.40;;
11761;SDS011;5938;47.098;15.474;2022-08-21T00:14:34;4.17;;;1.60;;
11761;SDS011;5938;47.098;15.474;2022-08-21T00:18:39;4.70;;;1.90;;
11761;SDS011;5938;47.098;15.474;2022-08-21T00:22:42;4.60;;;1.70;;
11761;SDS011;5938;47.098;15.474;2022-08-21T00:26:47;4.60;;;1.60;;
11761;SDS011;5938;47.098;15.474;2022-08-21T00:30:51;9.53;;;1.90;;
11761;SDS011;5938;47.098;15.474;2022-08-21T00:34:55;4.20;;;1.60;;
11761;SDS011;5938;47.098;15.474;2022-08-21T00:38:58;4.90;;;1.60;;
11761;SDS011;5938;47.098;15.474;2022-08-21T00:43:03;5.33;;;2.10;;
11761;SDS011;5938;47.098;15.474;2022-08-21T00:47:10;5.07;;;1.80;;
11761;SDS011;5938;47.098;15.474;2022-08-21T00:51:15;5.00;;;1.90;;
11761;SDS011;5938;47.098;15.474;2022-08-21T00:55:27;4.43;;;1.93;;
11761;SDS011;5938;47.098;15.474;2022-08-21T00:59:34;4.50;;;1.87;;
11761;SDS011;5938;47.098;15.474;2022-08-21T01:03:40;4.20;;;1.80;;
11761;SDS011;5938;47.098;15.474;2022-08-21T01:07:45;4.73;;;1.90;;
11761;SDS011;5938;47.098;15.474;2022-08-21T01:11:49;4.77;;;2.43;;
11761;SDS011;5938;47.098;15.474;2022-08-21T01:15:55;4.00;;;1.70;;
11761;SDS011;5938;47.098;15.474;2022-08-21T01:20:04;4.60;;;1.90;;
11761;SDS011;5938;47.098;15.474;2022-08-21T01:24:10;4.80;;;2.07;;
11761;SDS011;5938;47.098;15.474;2022-08-21T01:28:14;4.00;;;1.50;;
11761;SDS011;5938;47.098;15.474;2022-08-21T01:32:18;4.40;;;1.70;;
11761;SDS011;5938;47.098;15.474;2022-08-21T01:36:22;3.80;;;1.73;;
11761;SDS011;5938;47.098;15.474;2022-08-21T01:40:27;4.00;;;1.60;;
11761;SDS011;5938;47.098;15.474;2022-08-21T01:44:31;4.37;;;1.90;;
11761;SDS011;5938;47.098;15.474;2022-08-21T01:48:35;4.43;;;1.77;;
11761;SDS011;5938;47.098;15.474;2022-08-21T01:52:39;4.10;;;1.60;;
11761;SDS011;5938;47.098;15.474;2022-08-21T01:56:47;5.13;;;2.43;;
11761;SDS011;5938;47.098;15.474;2022-08-21T02:00:52;4.33;;;1.90;;
11761;SDS011;5938;47.098;15.474;2022-08-21T02:04:55;4.23;;;1.67;;
11761;SDS011;5938;47.098;15.474;2022-08-21T02:08:59;4.40;;;1.87;;
11761;SDS011;5938;47.098;15.474;2022-08-21T02:13:04;4.73;;;2.20;;
11761;SDS011;5938;47.098;15.474;2022-08-21T02:17:13;5.03;;;1.70;;
11761;SDS011;5938;47.098;15.474;2022-08-21T02:21:16;4.30;;;1.80;;
11761;SDS011;5938;47.098;15.474;2022-08-21T02:25:20;4.20;;;1.90;;
11761;SDS011;5938;47.098;15.474;2022-08-21T02:29:26;4.90;;;2.20;;
11761;SDS011;5938;47.098;15.474;2022-08-21T02:33:30;4.30;;;2.00;;
11761;SDS011;5938;47.098;15.474;2022-08-21T02:37:33;4.90;;;2.33;;
11761;SDS011;5938;47.098;15.474;2022-08-21T02:41:42;4.60;;;2.20;;
11761;SDS011;5938;47.098;15.474;2022-08-21T02:45:47;5.03;;;2.43;;
11761;SDS011;5938;47.098;15.474;2022-08-21T02:49:51;5.40;;;2.30;;
11761;SDS011;5938;47.098;15.474;2022-08-21T02:53:55;4.40;;;2.00;;
11761;SDS011;5938;47.098;15.474;2022-08-21T02:57:59;3.93;;;1.73;;
11761;SDS011;5938;47.098;15.474;2022-08-21T03:02:04;4.50;;;1.90;;
11761;SDS011;5938;47.098;15.474;2022-08-21T03:06:09;4.67;;;2.20;;
11761;SDS011;5938;47.098;15.474;2022-08-21T03:10:14;5.57;;;2.50;;
11761;SDS011;5938;47.098;15.474;2022-08-21T03:14:19;4.97;;;2.40;;
11761;SDS011;5938;47.098;15.474;2022-08-21T03:18:23;4.90;;;2.30;;
11761;SDS011;5938;47.098;15.474;2022-08-21T03:22:27;5.17;;;2.40;;
11761;SDS011;5938;47.098;15.474;2022-08-21T03:26:31;4.90;;;2.10;;
11761;SDS011;5938;47.098;15.474;2022-08-21T03:30:34;4.77;;;2.40;;
11761;SDS011;5938;47.098;15.474;2022-08-21T03:34:39;5.20;;;2.17;;
11761;SDS011;5938;47.098;15.474;2022-08-21T03:38:43;4.70;;;2.27;;
11761;SDS011;5938;47.098;15.474;2022-08-21T03:42:46;5.07;;;2.37;;
11761;SDS011;5938;47.098;15.474;2022-08-21T03:46:50;5.70;;;2.40;;
11761;SDS011;5938;47.098;15.474;2022-08-21T03:50:55;4.97;;;2.40;;
11761;SDS011;5938;47.098;15.474;2022-08-21T03:54:58;5.40;;;2.27;;
11761;SDS011;5938;47.098;15.474;2022-08-21T03:59:01;7.93;;;3.80;;
11761;SDS011;5938;47.098;15.474;2022-08-21T04:03:06;6.40;;;3.23;;
11761;SDS011;5938;47.098;15.474;2022-08-21T04:07:12;6.17;;;3.00;;
11761;SDS011;5938;47.098;15.474;2022-08-21T04:11:17;6.27;;;3.20;;
11761;SDS011;5938;47.098;15.474;2022-08-21T04:15:21;5.73;;;2.63;;
11761;SDS011;5938;47.098;15.474;2022-08-21T04:19:28;6.07;;;2.90;;
11761;SDS011;5938;47.098;15.474;2022-08-21T04:23:32;5.20;;;2.50;;
11761;SDS011;5938;47.098;15.474;2022-08-21T04:27:36;6.10;;;3.00;;
11761;SDS011;5938;47.098;15.474;2022-08-21T04:31:39;5.60;;;3.00;;
11761;SDS011;5938;47.098;15.474;2022-08-21T04:35:45;6.00;;;3.00;;
11761;SDS011;5938;47.098;15.474;2022-08-21T04:39:50;5.70;;;2.70;;
11761;SDS011;5938;47.098;15.474;2022-08-21T04:43:54;5.60;;;2.67;;
11761;SDS011;5938;47.098;15.474;2022-08-21T04:48:00;5.10;;;2.43;;
11761;SDS011;5938;47.098;15.474;2022-08-21T04:52:05;5.67;;;3.03;;
11761;SDS011;5938;47.098;15.474;2022-08-21T04:56:10;5.43;;;2.67;;
11761;SDS011;5938;47.098;15.474;2022-08-21T05:00:16;4.80;;;2.50;;
11761;SDS011;5938;47.098;15.474;2022-08-21T05:04:21;5.50;;;2.60;;
11761;SDS011;5938;47.098;15.474;2022-08-21T05:08:28;5.63;;;2.70;;
11761;SDS011;5938;47.098;15.474;2022-08-21T05:12:32;5.30;;;2.90;;
11761;SDS011;5938;47.098;15.474;2022-08-21T05:16:38;5.23;;;2.80;;
11761;SDS011;5938;47.098;15.474;2022-08-21T05:20:41;4.67;;;2.50;;
11761;SDS011;5938;47.098;15.474;2022-08-21T05:24:46;5.00;;;2.80;;
11761;SDS011;5938;47.098;15.474;2022-08-21T05:28:50;3.73;;;1.80;;
11761;SDS011;5938;47.098;15.474;2022-08-21T05:32:55;4.10;;;2.13;;
11761;SDS011;5938;47.098;15.474;2022-08-21T05:37:00;4.10;;;1.90;;
11761;SDS011;5938;47.098;15.474;2022-08-21T05:41:08;4.77;;;1.97;;
11761;SDS011;5938;47.098;15.474;2022-08-21T05:45:16;4.73;;;2.13;;
11761;SDS011;5938;47.098;15.474;2022-08-21T05:49:40;4.53;;;1.80;;
11761;SDS011;5938;47.098;15.474;2022-08-21T05:53:43;4.20;;;1.97;;
11761;SDS011;5938;47.098;15.474;2022-08-21T05:57:47;3.80;;;1.30;;
11761;SDS011;5938;47.098;15.474;2022-08-21T06:01:52;3.90;;;1.53;;
11761;SDS011;5938;47.098;15.474;2022-08-21T06:05:56;4.50;;;1.90;;
11761;SDS011;5938;47.098;15.474;2022-08-21T06:09:59;4.47;;;1.80;;
11761;SDS011;5938;47.098;15.474;2022-08-21T06:14:02;3.80;;;1.57;;
11761;SDS011;5938;47.098;15.474;2022-08-21T06:18:09;8.83;;;1.90;;
11761;SDS011;5938;47.098;15.474;2022-08-21T06:22:12;3.83;;;1.77;;
11761;SDS011;5938;47.098;15.474;2022-08-21T06:26:16;4.60;;;2.17;;
11761;SDS011;5938;47.098;15.474;2022-08-21T06:30:19;4.13;;;2.13;;
11761;SDS011;5938;47.098;15.474;2022-08-21T06:34:24;3.70;;;1.30;;
11761;SDS011;5938;47.098;15.474;2022-08-21T06:38:28;3.77;;;1.83;;
11761;SDS011;5938;47.098;15.474;2022-08-21T06:42:33;3.60;;;1.43;;
11761;SDS011;5938;47.098;15.474;2022-08-21T06:46:43;4.47;;;1.70;;
11761;SDS011;5938;47.098;15.474;2022-08-21T06:50:51;4.67;;;1.83;;
11761;SDS011;5938;47.098;15.474;2022-08-21T06:54:54;4.03;;;1.70;;
11761;SDS011;5938;47.098;15.474;2022-08-21T06:58:57;3.77;;;1.63;;
11761;SDS011;5938;47.098;15.474;2022-08-21T07:03:00;4.67;;;1.80;;
11761;SDS011;5938;47.098;15.474;2022-08-21T07:07:06;4.17;;;1.57;;
11761;SDS011;5938;47.098;15.474;2022-08-21T07:11:11;3.83;;;1.50;;
11761;SDS011;5938;47.098;15.474;2022-08-21T07:15:17;3.73;;;1.50;;
11761;SDS011;5938;47.098;15.474;2022-08-21T07:19:20;4.50;;;1.63;;
11761;SDS011;5938;47.098;15.474;2022-08-21T07:23:26;3.73;;;1.63;;
11761;SDS011;5938;47.098;15.474;2022-08-21T07:27:33;3.63;;;1.27;;
11761;SDS011;5938;47.098;15.474;2022-08-21T07:31:40;3.90;;;1.70;;
11761;SDS011;5938;47.098;15.474;2022-08-21T07:35:43;4.57;;;1.50;;
11761;SDS011;5938;47.098;15.474;2022-08-21T07:39:48;3.60;;;1.20;;
11761;SDS011;5938;47.098;15.474;2022-08-21T07:43:52;4.00;;;1.40;;
11761;SDS011;5938;47.098;15.474;2022-08-21T07:47:55;3.80;;;1.10;;
11761;SDS011;5938;47.098;15.474;2022-08-21T07:51:59;3.67;;;1.33;;
11761;SDS011;5938;47.098;15.474;2022-08-21T07:56:04;3.50;;;1.37;;
11761;SDS011;5938;47.098;15.474;2022-08-21T08:00:11;4.30;;;1.90;;
11761;SDS011;5938;47.098;15.474;2022-08-21T08:04:16;3.80;;;1.70;;
11761;SDS011;5938;47.098;15.474;2022-08-21T08:08:26;3.70;;;1.40;;
11761;SDS011;5938;47.098;15.474;2022-08-21T08:12:31;3.50;;;1.30;;
11761;SDS011;5938;47.098;15.474;2022-08-21T08:16:34;3.67;;;1.40;;
11761;SDS011;5938;47.098;15.474;2022-08-21T08:20:37;3.47;;;1.20;;
11761;SDS011;5938;47.098;15.474;2022-08-21T08:24:40;3.57;;;1.10;;
11761;SDS011;5938;47.098;15.474;2022-08-21T08:28:45;4.50;;;1.20;;
11761;SDS011;5938;47.098;15.474;2022-08-21T08:32:49;3.43;;;0.97;;
11761;SDS011;5938;47.098;15.474;2022-08-21T08:36:52;3.93;;;1.30;;
11761;SDS011;5938;47.098;15.474;2022-08-21T08:40:58;4.33;;;1.33;;
11761;SDS011;5938;47.098;15.474;2022-08-21T08:45:10;3.80;;;1.40;;
11761;SDS011;5938;47.098;15.474;2022-08-21T08:49:19;3.37;;;0.93;;
11761;SDS011;5938;47.098;15.474;2022-08-21T08:53:28;3.50;;;1.20;;
11761;SDS011;5938;47.098;15.474;2022-08-21T08:57:35;3.50;;;1.30;;
11761;SDS011;5938;47.098;15.474;2022-08-21T09:01:41;3.70;;;1.30;;
11761;SDS011;5938;47.098;15.474;2022-08-21T09:05:45;3.40;;;1.00;;
11761;SDS011;5938;47.098;15.474;2022-08-21T09:09:57;3.50;;;1.10;;
11761;SDS011;5938;47.098;15.474;2022-08-21T09:14:08;3.53;;;1.20;;
11761;SDS011;5938;47.098;15.474;2022-08-21T09:18:24;3.50;;;1.30;;
11761;SDS011;5938;47.098;15.474;2022-08-21T09:22:37;5.27;;;1.20;;
11761;SDS011;5938;47.098;15.474;2022-08-21T09:26:47;3.20;;;1.00;;
11761;SDS011;5938;47.098;15.474;2022-08-21T09:30:55;4.30;;;1.23;;
11761;SDS011;5938;47.098;15.474;2022-08-21T09:35:06;3.47;;;1.20;;
11761;SDS011;5938;47.098;15.474;2022-08-21T09:39:12;3.40;;;1.10;;
11761;SDS011;5938;47.098;15.474;2022-08-21T09:43:24;4.23;;;1.40;;
11761;SDS011;5938;47.098;15.474;2022-08-21T09:47:27;3.40;;;1.37;;
11761;SDS011;5938;47.098;15.474;2022-08-21T09:51:34;3.53;;;1.13;;
11761;SDS011;5938;47.098;15.474;2022-08-21T09:55:46;3.20;;;1.17;;
11761;SDS011;5938;47.098;15.474;2022-08-21T10:00:10;3.40;;;1.20;;
11761;SDS011;5938;47.098;15.474;2022-08-21T10:04:22;3.23;;;1.10;;
11761;SDS011;5938;47.098;15.474;2022-08-21T10:08:31;3.80;;;1.30;;
11761;SDS011;5938;47.098;15.474;2022-08-21T10:12:39;3.40;;;1.20;;
11761;SDS011;5938;47.098;15.474;2022-08-21T10:16:52;3.57;;;1.17;;
11761;SDS011;5938;47.098;15.474;2022-08-21T10:21:06;3.53;;;1.10;;
11761;SDS011;5938;47.098;15.474;2022-08-21T10:25:19;4.33;;;1.40;;
11761;SDS011;5938;47.098;15.474;2022-08-21T10:29:34;3.60;;;1.40;;
11761;SDS011;5938;47.098;15.474;2022-08-21T10:33:50;3.60;;;1.10;;
11761;SDS011;5938;47.098;15.474;2022-08-21T10:38:00;3.70;;;1.50;;
11761;SDS011;5938;47.098;15.474;2022-08-21T10:42:51;3.60;;;1.57;;
11761;SDS011;5938;47.098;15.474;2022-08-21T10:47:05;3.50;;;1.33;;
11761;SDS011;5938;47.098;15.474;2022-08-21T10:51:13;4.93;;;1.40;;
11761;SDS011;5938;47.098;15.474;2022-08-21T10:55:30;3.70;;;1.10;;
11761;SDS011;5938;47.098;15.474;2022-08-21T10:59:39;3.87;;;1.20;;
11761;SDS011;5938;47.098;15.474;2022-08-21T11:03:50;3.80;;;1.30;;
11761;SDS011;5938;47.098;15.474;2022-08-21T11:08:01;3.90;;;1.40;;
11761;SDS011;5938;47.098;15.474;2022-08-21T11:12:11;4.10;;;1.50;;
11761;SDS011;5938;47.098;15.474;2022-08-21T11:16:31;4.67;;;1.30;;
11761;SDS011;5938;47.098;15.474;2022-08-21T11:20:42;4.30;;;1.57;;
11761;SDS011;5938;47.098;15.474;2022-08-21T11:24:52;3.77;;;1.37;;
11761;SDS011;5938;47.098;15.474;2022-08-21T11:29:04;3.70;;;1.13;;
11761;SDS011;5938;47.098;15.474;2022-08-21T11:33:19;3.70;;;1.33;;
11761;SDS011;5938;47.098;15.474;2022-08-21T11:37:38;3.67;;;1.00;;
11761;SDS011;5938;47.098;15.474;2022-08-21T11:41:51;3.43;;;0.90;;
11761;SDS011;5938;47.098;15.474;2022-08-21T11:46:10;3.67;;;1.20;;
11761;SDS011;5938;47.098;15.474;2022-08-21T11:50:23;3.60;;;0.90;;
11761;SDS011;5938;47.098;15.474;2022-08-21T11:54:37;3.90;;;1.17;;
11761;SDS011;5938;47.098;15.474;2022-08-21T11:58:46;3.57;;;1.00;;
11761;SDS011;5938;47.098;15.474;2022-08-21T12:02:57;3.70;;;1.13;;
11761;SDS011;5938;47.098;15.474;2022-08-21T12:07:14;3.70;;;1.20;;
11761;SDS011;5938;47.098;15.474;2022-08-21T12:11:22;4.17;;;0.70;;
11761;SDS011;5938;47.098;15.474;2022-08-21T12:15:31;3.20;;;0.70;;
11761;SDS011;5938;47.098;15.474;2022-08-21T12:19:34;3.50;;;1.00;;
11761;SDS011;5938;47.098;15.474;2022-08-21T12:23:45;3.73;;;0.80;;
11761;SDS011;5938;47.098;15.474;2022-08-21T12:27:52;3.33;;;0.73;;
11761;SDS011;5938;47.098;15.474;2022-08-21T12:36:30;3.60;;;0.83;;
11761;SDS011;5938;47.098;15.474;2022-08-21T12:40:48;3.50;;;0.80;;
11761;SDS011;5938;47.098;15.474;2022-08-21T12:44:58;3.73;;;0.80;;
11761;SDS011;5938;47.098;15.474;2022-08-21T12:49:07;3.43;;;0.67;;
11761;SDS011;5938;47.098;15.474;2022-08-21T12:53:19;3.83;;;0.90;;
11761;SDS011;5938;47.098;15.474;2022-08-21T12:57:35;3.60;;;0.73;;
11761;SDS011;5938;47.098;15.474;2022-08-21T13:01:43;5.03;;;0.87;;
11761;SDS011;5938;47.098;15.474;2022-08-21T13:05:51;3.40;;;0.60;;
11761;SDS011;5938;47.098;15.474;2022-08-21T13:09:56;3.40;;;0.70;;
11761;SDS011;5938;47.098;15.474;2022-08-21T13:14:03;3.80;;;0.93;;
11761;SDS011;5938;47.098;15.474;2022-08-21T13:18:07;3.30;;;0.80;;
11761;SDS011;5938;47.098;15.474;2022-08-21T13:22:23;3.30;;;0.50;;
11761;SDS011;5938;47.098;15.474;2022-08-21T13:26:35;4.13;;;0.80;;
11761;SDS011;5938;47.098;15.474;2022-08-21T13:30:40;3.50;;;0.70;;
11761;SDS011;5938;47.098;15.474;2022-08-21T13:34:45;7.30;;;1.20;;
11761;SDS011;5938;47.098;15.474;2022-08-21T13:38:54;4.70;;;0.97;;
11761;SDS011;5938;47.098;15.474;2022-08-21T13:42:59;3.33;;;0.70;;
11761;SDS011;5938;47.098;15.474;2022-08-21T13:47:04;3.40;;;0.70;;
11761;SDS011;5938;47.098;15.474;2022-08-21T13:51:08;3.30;;;0.60;;
11761;SDS011;5938;47.098;15.474;2022-08-21T13:55:13;3.43;;;0.63;;
11761;SDS011;5938;47.098;15.474;2022-08-21T13:59:26;3.33;;;0.50;;
11761;SDS011;5938;47.098;15.474;2022-08-21T14:03:36;3.97;;;0.90;;
11761;SDS011;5938;47.098;15.474;2022-08-21T14:07:46;3.27;;;0.67;;
11761;SDS011;5938;47.098;15.474;2022-08-21T14:11:50;3.40;;;0.70;;
11761;SDS011;5938;47.098;15.474;2022-08-21T14:15:54;4.10;;;1.00;;
11761;SDS011;5938;47.098;15.474;2022-08-21T14:20:01;3.80;;;0.87;;
11761;SDS011;5938;47.098;15.474;2022-08-21T14:24:07;3.20;;;0.70;;
11761;SDS011;5938;47.098;15.474;2022-08-21T14:28:15;3.17;;;0.60;;
11761;SDS011;5938;47.098;15.474;2022-08-21T14:32:28;3.70;;;1.10;;
11761;SDS011;5938;47.098;15.474;2022-08-21T14:36:47;3.70;;;0.93;;
11761;SDS011;5938;47.098;15.474;2022-08-21T14:40:51;3.37;;;0.90;;
11761;SDS011;5938;47.098;15.474;2022-08-21T14:45:00;4.00;;;0.80;;
11761;SDS011;5938;47.098;15.474;2022-08-21T14:49:07;3.60;;;0.83;;
11761;SDS011;5938;47.098;15.474;2022-08-21T14:53:12;3.87;;;0.90;;
11761;SDS011;5938;47.098;15.474;2022-08-21T14:57:15;3.37;;;0.83;;
11761;SDS011;5938;47.098;15.474;2022-08-21T15:01:19;4.37;;;0.97;;
11761;SDS011;5938;47.098;15.474;2022-08-21T15:05:24;4.17;;;1.60;;
11761;SDS011;5938;47.098;15.474;2022-08-21T15:09:35;4.20;;;1.33;;
11761;SDS011;5938;47.098;15.474;2022-08-21T15:13:39;4.47;;;1.30;;
11761;SDS011;5938;47.098;15.474;2022-08-21T15:17:42;3.97;;;1.27;;
11761;SDS011;5938;47.098;15.474;2022-08-21T15:21:49;4.00;;;1.43;;
11761;SDS011;5938;47.098;15.474;2022-08-21T15:25:55;3.80;;;1.23;;
11761;SDS011;5938;47.098;15.474;2022-08-21T15:30:01;3.97;;;1.50;;
11761;SDS011;5938;47.098;15.474;2022-08-21T15:34:04;4.30;;;1.70;;
11761;SDS011;5938;47.098;15.474;2022-08-21T15:38:08;4.30;;;1.90;;
11761;SDS011;5938;47.098;15.474;2022-08-21T15:42:13;4.33;;;1.73;;
11761;SDS011;5938;47.098;15.474;2022-08-21T15:46:17;6.33;;;1.93;;
11761;SDS011;5938;47.098;15.474;2022-08-21T15:50:22;4.17;;;1.80;;
11761;SDS011;5938;47.098;15.474;2022-08-21T15:54:26;4.37;;;1.73;;
11761;SDS011;5938;47.098;15.474;2022-08-21T15:58:30;4.50;;;2.00;;
11761;SDS011;5938;47.098;15.474;2022-08-21T16:02:34;4.70;;;2.07;;
11761;SDS011;5938;47.098;15.474;2022-08-21T16:06:38;17.00;;;2.17;;
11761;SDS011;5938;47.098;15.474;2022-08-21T16:10:59;4.57;;;2.10;;
11761;SDS011;5938;47.098;15.474;2022-08-21T16:15:06;5.87;;;2.07;;
11761;SDS011;5938;47.098;15.474;2022-08-21T16:19:20;4.50;;;1.70;;
11761;SDS011;5938;47.098;15.474;2022-08-21T16:23:24;5.80;;;2.50;;
11761;SDS011;5938;47.098;15.474;2022-08-21T16:27:27;4.60;;;2.10;;
11761;SDS011;5938;47.098;15.474;2022-08-21T16:31:36;4.90;;;2.20;;
11761;SDS011;5938;47.098;15.474;2022-08-21T16:35:39;4.90;;;2.17;;
11761;SDS011;5938;47.098;15.474;2022-08-21T16:39:42;4.90;;;2.20;;
11761;SDS011;5938;47.098;15.474;2022-08-21T16:43:46;5.70;;;2.30;;
11761;SDS011;5938;47.098;15.474;2022-08-21T16:47:52;4.90;;;2.43;;
11761;SDS011;5938;47.098;15.474;2022-08-21T16:51:56;4.87;;;2.37;;
11761;SDS011;5938;47.098;15.474;2022-08-21T16:55:59;6.10;;;2.30;;
11761;SDS011;5938;47.098;15.474;2022-08-21T17:00:03;5.57;;;2.10;;
11761;SDS011;5938;47.098;15.474;2022-08-21T17:04:12;5.07;;;2.30;;
11761;SDS011;5938;47.098;15.474;2022-08-21T17:08:16;4.77;;;2.20;;
11761;SDS011;5938;47.098;15.474;2022-08-21T17:12:20;5.13;;;2.53;;
11761;SDS011;5938;47.098;15.474;2022-08-21T17:16:24;5.23;;;2.60;;
11761;SDS011;5938;47.098;15.474;2022-08-21T17:20:30;4.70;;;1.97;;
11761;SDS011;5938;47.098;15.474;2022-08-21T17:24:33;6.83;;;2.03;;
11761;SDS011;5938;47.098;15.474;2022-08-21T17:28:37;5.63;;;2.13;;
11761;SDS011;5938;47.098;15.474;2022-08-21T17:32:41;4.87;;;2.10;;
11761;SDS011;5938;47.098;15.474;2022-08-21T17:36:47;5.90;;;3.00;;
11761;SDS011;5938;47.098;15.474;2022-08-21T17:40:50;4.87;;;2.40;;
11761;SDS011;5938;47.098;15.474;2022-08-21T17:44:54;6.53;;;2.90;;
11761;SDS011;5938;47.098;15.474;2022-08-21T17:48:58;5.10;;;2.77;;
11761;SDS011;5938;47.098;15.474;2022-08-21T17:53:10;5.67;;;3.07;;
11761;SDS011;5938;47.098;15.474;2022-08-21T17:57:30;5.53;;;2.63;;
11761;SDS011;5938;47.098;15.474;2022-08-21T18:01:46;5.07;;;2.53;;
11761;SDS011;5938;47.098;15.474;2022-08-21T18:05:53;5.10;;;2.40;;
11761;SDS011;5938;47.098;15.474;2022-08-21T18:10:04;6.43;;;3.17;;
11761;SDS011;5938;47.098;15.474;2022-08-21T18:14:19;5.53;;;2.80;;
11761;SDS011;5938;47.098;15.474;2022-08-21T18:18:49;5.27;;;2.60;;
11761;SDS011;5938;47.098;15.474;2022-08-21T18:22:59;5.80;;;2.73;;
11761;SDS011;5938;47.098;15.474;2022-08-21T18:27:05;5.03;;;2.30;;
11761;SDS011;5938;47.098;15.474;2022-08-21T18:31:10;5.63;;;2.57;;
11761;SDS011;5938;47.098;15.474;2022-08-21T18:35:16;5.90;;;3.00;;
11761;SDS011;5938;47.098;15.474;2022-08-21T18:39:21;4.50;;;2.57;;
11761;SDS011;5938;47.098;15.474;2022-08-21T18:43:38;5.17;;;2.57;;
11761;SDS011;5938;47.098;15.474;2022-08-21T18:47:43;6.00;;;2.53;;
11761;SDS011;5938;47.098;15.474;2022-08-21T18:51:57;4.90;;;2.47;;
11761;SDS011;5938;47.098;15.474;2022-08-21T18:56:04;5.00;;;2.50;;
11761;SDS011;5938;47.098;15.474;2022-08-21T19:00:19;5.43;;;2.70;;
11761;SDS011;5938;47.098;15.474;2022-08-21T19:04:27;4.90;;;2.50;;
11761;SDS011;5938;47.098;15.474;2022-08-21T19:08:45;5.63;;;3.03;;
11761;SDS011;5938;47.098;15.474;2022-08-21T19:12:52;5.60;;;3.07;;
11761;SDS011;5938;47.098;15.474;2022-08-21T19:17:02;6.10;;;3.10;;
11761;SDS011;5938;47.098;15.474;2022-08-21T19:21:15;6.03;;;3.10;;
11761;SDS011;5938;47.098;15.474;2022-08-21T19:25:19;5.27;;;2.77;;
11761;SDS011;5938;47.098;15.474;2022-08-21T19:29:42;4.70;;;2.50;;
11761;SDS011;5938;47.098;15.474;2022-08-21T19:33:49;5.00;;;2.67;;
11761;SDS011;5938;47.098;15.474;2022-08-21T19:38:02;6.70;;;3.03;;
11761;SDS011;5938;47.098;15.474;2022-08-21T19:42:12;5.03;;;2.37;;
11761;SDS011;5938;47.098;15.474;2022-08-21T19:46:18;6.50;;;3.00;;
11761;SDS011;5938;47.098;15.474;2022-08-21T19:50:27;4.70;;;2.37;;
11761;SDS011;5938;47.098;15.474;2022-08-21T19:54:31;5.30;;;2.73;;
11761;SDS011;5938;47.098;15.474;2022-08-21T19:58:35;5.20;;;2.70;;
11761;SDS011;5938;47.098;15.474;2022-08-21T20:02:41;4.90;;;2.50;;
11761;SDS011;5938;47.098;15.474;2022-08-21T20:06:50;5.27;;;2.87;;
11761;SDS011;5938;47.098;15.474;2022-08-21T20:10:54;4.23;;;2.30;;
11761;SDS011;5938;47.098;15.474;2022-08-21T20:15:04;5.93;;;3.10;;
11761;SDS011;5938;47.098;15.474;2022-08-21T20:19:09;5.37;;;2.90;;
11761;SDS011;5938;47.098;15.474;2022-08-21T20:23:15;4.57;;;2.40;;
11761;SDS011;5938;47.098;15.474;2022-08-21T20:27:30;6.10;;;3.07;;
11761;SDS011;5938;47.098;15.474;2022-08-21T20:31:40;4.70;;;2.57;;
11761;SDS011;5938;47.098;15.474;2022-08-21T20:35:44;5.20;;;2.70;;
11761;SDS011;5938;47.098;15.474;2022-08-21T20:39:51;5.07;;;2.87;;
11761;SDS011;5938;47.098;15.474;2022-08-21T20:43:57;7.30;;;3.00;;
11761;SDS011;5938;47.098;15.474;2022-08-21T20:48:05;5.37;;;2.67;;
11761;SDS011;5938;47.098;15.474;2022-08-21T20:52:14;5.03;;;2.83;;
11761;SDS011;5938;47.098;15.474;2022-08-21T20:56:42;5.90;;;2.73;;
11761;SDS011;5938;47.098;15.474;2022-08-21T21:00:49;4.77;;;2.50;;
11761;SDS011;5938;47.098;15.474;2022-08-21T21:04:58;4.90;;;2.63;;
11761;SDS011;5938;47.098;15.474;2022-08-21T21:09:07;5.20;;;2.40;;
11761;SDS011;5938;47.098;15.474;2022-08-21T21:13:17;5.27;;;2.70;;
11761;SDS011;5938;47.098;15.474;2022-08-21T21:17:25;5.13;;;2.63;;
11761;SDS011;5938;47.098;15.474;2022-08-21T21:21:34;4.90;;;2.50;;
11761;SDS011;5938;47.098;15.474;2022-08-21T21:25:56;4.93;;;2.70;;
11761;SDS011;5938;47.098;15.474;2022-08-21T21:30:04;5.80;;;2.50;;
11761;SDS011;5938;47.098;15.474;2022-08-21T21:34:14;4.80;;;2.77;;
11761;SDS011;5938;47.098;15.474;2022-08-21T21:38:21;5.70;;;2.83;;
11761;SDS011;5938;47.098;15.474;2022-08-21T21:42:28;5.63;;;3.27;;
11761;SDS011;5938;47.098;15.474;2022-08-21T21:46:44;5.57;;;3.03;;
11761;SDS011;5938;47.098;15.474;2022-08-21T21:50:56;4.43;;;2.47;;
11761;SDS011;5938;47.098;15.474;2022-08-21T21:55:17;6.17;;;2.90;;
11761;SDS011;5938;47.098;15.474;2022-08-21T21:59:36;5.10;;;2.77;;
11761;SDS011;5938;47.098;15.474;2022-08-21T22:03:52;6.03;;;2.67;;
11761;SDS011;5938;47.098;15.474;2022-08-21T22:08:25;8.20;;;3.00;;
11761;SDS011;5938;47.098;15.474;2022-08-21T22:12:41;4.90;;;2.57;;
11761;SDS011;5938;47.098;15.474;2022-08-21T22:16:54;5.10;;;2.90;;
11761;SDS011;5938;47.098;15.474;2022-08-21T22:21:13;5.30;;;3.20;;
11761;SDS011;5938;47.098;15.474;2022-08-21T22:25:25;5.77;;;3.00;;
11761;SDS011;5938;47.098;15.474;2022-08-21T22:29:40;8.30;;;3.45;;
11761;SDS011;5938;47.098;15.474;2022-08-21T22:33:59;4.97;;;2.57;;
11761;SDS011;5938;47.098;15.474;2022-08-21T22:38:18;5.10;;;3.00;;
11761;SDS011;5938;47.098;15.474;2022-08-21T22:42:30;5.20;;;3.00;;
11761;SDS011;5938;47.098;15.474;2022-08-21T22:46:35;7.13;;;2.87;;
11761;SDS011;5938;47.098;15.474;2022-08-21T22:50:41;4.90;;;2.97;;
11761;SDS011;5938;47.098;15.474;2022-08-21T22:54:46;5.10;;;2.40;;
11761;SDS011;5938;47.098;15.474;2022-08-21T22:58:54;5.80;;;3.07;;
11761;SDS011;5938;47.098;15.474;2022-08-21T23:02:59;4.60;;;2.70;;
11761;SDS011;5938;47.098;15.474;2022-08-21T23:07:04;5.03;;;3.03;;
11761;SDS011;5938;47.098;15.474;2022-08-21T23:11:12;6.53;;;2.70;;
11761;SDS011;5938;47.098;15.474;2022-08-21T23:15:18;7.00;;;3.03;;
11761;SDS011;5938;47.098;15.474;2022-08-21T23:19:27;5.57;;;3.40;;
11761;SDS011;5938;47.098;15.474;2022-08-21T23:23:39;6.17;;;2.70;;
11761;SDS011;5938;47.098;15.474;2022-08-21T23:28:04;5.60;;;3.07;;
11761;SDS011;5938;47.098;15.474;2022-08-21T23:32:21;6.20;;;3.50;;
11761;SDS011;5938;47.098;15.474;2022-08-21T23:37:06;7.70;;;3.20;;
11761;SDS011;5938;47.098;15.474;2022-08-21T23:41:52;6.10;;;3.37;;
11761;SDS011;5938;47.098;15.474;2022-08-21T23:46:08;5.30;;;3.23;;
11761;SDS011;5938;47.098;15.474;2022-08-21T23:50:35;5.03;;;2.57;;
11761;SDS011;5938;47.098;15.474;2022-08-21T23:54:51;5.00;;;2.70;;
11761;SDS011;5938;47.098;15.474;2022-08-21T23:59:18;7.00;;;3.77;;
